Time;durP1;ratioP1;P1;durP2;ratioP2;P2;SDS_P1;SDS_P2;PMS_P1;PMS_P2;Temp;Humidity;BMP_temperature;BMP_pressure;BME280_temperature;BME280_humidity;BME280_pressure;Samples;Min_cycle;Max_cycle;Signal;HPM_P1;HPM_P2
2023/04/17 00:02:02;;;;;;;4.90;3.90;;;8.80;99.90;;;;;;4994508;28;20249;-89
2023/04/17 00:04:33;;;;;;;4.27;3.53;;;9.00;99.90;;;;;;4997446;28;20205;-90
2023/04/17 00:07:08;;;;;;;4.83;3.60;;;9.00;99.90;;;;;;5013901;28;20217;-90
2023/04/17 00:09:40;;;;;;;4.20;3.17;;;8.90;99.90;;;;;;5014231;28;20658;-90
2023/04/17 00:12:14;;;;;;;4.30;3.10;;;9.00;99.90;;;;;;4992205;28;20265;-90
2023/04/17 00:14:46;;;;;;;3.40;2.80;;;9.00;99.90;;;;;;4995224;28;20222;-92
2023/04/17 00:17:17;;;;;;;4.43;2.80;;;9.10;99.90;;;;;;4994627;28;20261;-91
2023/04/17 00:19:49;;;;;;;3.30;2.53;;;9.40;99.90;;;;;;4992624;28;20238;-89
2023/04/17 00:22:23;;;;;;;3.47;2.80;;;9.40;99.90;;;;;;4995628;28;20581;-88
2023/04/17 00:24:58;;;;;;;3.10;2.80;;;9.20;99.90;;;;;;4995611;28;20353;-89
2023/04/17 00:27:29;;;;;;;4.00;2.60;;;9.00;99.90;;;;;;4985866;28;20206;-89
2023/04/17 00:30:01;;;;;;;2.97;2.60;;;8.80;99.90;;;;;;5016026;28;20206;-89
2023/04/17 00:32:33;;;;;;;4.10;2.47;;;8.60;99.90;;;;;;5006812;28;20222;-90
2023/04/17 00:35:06;;;;;;;2.20;2.00;;;8.70;99.90;;;;;;4999305;28;20257;-89
2023/04/17 00:37:39;;;;;;;3.63;2.20;;;8.60;99.90;;;;;;4990182;28;20263;-89
2023/04/17 00:40:14;;;;;;;2.13;1.90;;;8.80;99.90;;;;;;4997702;28;20731;-88
2023/04/17 00:42:51;;;;;;;2.30;2.00;;;8.90;99.90;;;;;;5005297;28;20220;-89
2023/04/17 00:45:24;;;;;;;2.63;2.23;;;9.10;99.90;;;;;;5005934;28;20214;-88
2023/04/17 00:47:56;;;;;;;2.20;2.00;;;9.50;99.90;;;;;;5003983;28;20273;-91
2023/04/17 00:50:31;;;;;;;2.00;1.80;;;9.40;99.90;;;;;;4987147;28;20306;-89
2023/04/17 00:53:06;;;;;;;1.63;1.53;;;9.50;99.90;;;;;;4989796;28;20246;-90
2023/04/17 00:55:42;;;;;;;1.57;1.47;;;9.70;99.90;;;;;;4997027;28;20205;-89
2023/04/17 00:58:15;;;;;;;1.97;1.50;;;9.60;99.90;;;;;;4974304;28;20293;-89
2023/04/17 01:00:46;;;;;;;1.40;1.10;;;9.80;99.90;;;;;;4976537;28;20215;-89
2023/04/17 01:03:19;;;;;;;1.73;1.40;;;9.40;99.90;;;;;;4988924;28;20237;-89
2023/04/17 01:05:52;;;;;;;0.80;0.80;;;9.60;99.90;;;;;;4992839;28;20332;-89
2023/04/17 01:08:27;;;;;;;3.73;1.10;;;9.60;99.90;;;;;;4992875;28;20213;-89
2023/04/17 01:10:58;;;;;;;1.53;0.90;;;9.60;99.90;;;;;;4990596;28;20209;-91
2023/04/17 01:13:30;;;;;;;1.63;0.90;;;9.50;99.90;;;;;;5005671;28;20254;-92
2023/04/17 01:16:02;;;;;;;0.87;0.80;;;9.10;99.90;;;;;;4989898;28;20226;-90
2023/04/17 01:18:36;;;;;;;0.77;0.70;;;9.20;99.90;;;;;;4992785;28;20214;-89
2023/04/17 01:21:08;;;;;;;0.70;0.70;;;9.00;99.90;;;;;;4990190;28;20278;-90
2023/04/17 01:23:58;;;;;;;0.73;0.70;;;9.00;99.90;;;;;;4984900;28;20220;-88
2023/04/17 01:26:33;;;;;;;0.93;0.67;;;8.90;99.90;;;;;;4994934;28;20215;-88
2023/04/17 01:29:08;;;;;;;2.67;0.83;;;8.90;99.90;;;;;;4994160;28;20293;-87
2023/04/17 01:31:40;;;;;;;0.70;0.70;;;8.70;99.90;;;;;;4983090;28;20268;-89
2023/04/17 01:34:12;;;;;;;0.67;0.60;;;8.30;99.90;;;;;;4984391;28;20235;-90
2023/04/17 01:36:45;;;;;;;0.87;0.70;;;8.00;99.90;;;;;;4974450;28;20573;-89
2023/04/17 01:39:18;;;;;;;1.13;0.70;;;8.00;99.90;;;;;;4981448;28;20218;-88
2023/04/17 01:41:52;;;;;;;1.07;0.97;;;8.00;99.90;;;;;;4975050;28;20669;-88
2023/04/17 01:44:24;;;;;;;1.53;0.80;;;8.10;99.90;;;;;;4974474;28;20280;-89
2023/04/17 01:46:55;;;;;;;1.80;0.87;;;8.20;99.90;;;;;;4973666;28;20199;-88
2023/04/17 01:49:27;;;;;;;1.43;0.80;;;8.20;99.90;;;;;;4991565;28;20214;-89
2023/04/17 01:52:00;;;;;;;1.60;0.90;;;8.10;99.90;;;;;;4986587;28;20222;-89
2023/04/17 01:54:31;;;;;;;1.20;0.70;;;7.90;99.90;;;;;;4974320;28;20330;-88
2023/04/17 01:57:05;;;;;;;2.97;0.70;;;7.80;99.90;;;;;;4982535;28;20219;-89
2023/04/17 01:59:36;;;;;;;1.70;0.70;;;7.80;99.90;;;;;;4992016;28;20206;-88
2023/04/17 02:02:08;;;;;;;1.80;0.90;;;7.80;99.90;;;;;;4999099;28;20229;-89
2023/04/17 02:04:39;;;;;;;1.43;0.60;;;7.70;99.90;;;;;;5012551;28;20598;-89
2023/04/17 02:07:10;;;;;;;1.43;0.60;;;7.70;99.90;;;;;;5005420;28;20206;-89
2023/04/17 02:09:44;;;;;;;5.40;1.07;;;7.70;99.90;;;;;;4972873;28;20213;-87
2023/04/17 02:12:18;;;;;;;2.27;0.90;;;7.70;99.90;;;;;;4983586;28;20217;-89
2023/04/17 02:14:49;;;;;;;2.67;0.70;;;7.70;99.90;;;;;;5002023;28;20244;-89
2023/04/17 02:17:21;;;;;;;2.20;0.80;;;7.80;99.90;;;;;;5014037;28;20211;-88
2023/04/17 02:19:52;;;;;;;3.27;1.27;;;7.80;99.90;;;;;;5015785;28;20291;-88
2023/04/17 02:22:23;;;;;;;1.30;0.80;;;7.80;99.90;;;;;;5005295;28;20589;-90
2023/04/17 02:24:55;;;;;;;4.20;1.00;;;7.80;99.90;;;;;;4997052;28;20210;-89
2023/04/17 02:27:29;;;;;;;3.30;0.70;;;7.70;99.90;;;;;;4996313;28;20903;-88
2023/04/17 02:30:00;;;;;;;2.53;0.90;;;7.70;99.90;;;;;;4995834;28;20234;-87
2023/04/17 02:32:32;;;;;;;2.83;1.03;;;7.70;99.90;;;;;;4986063;28;20285;-88
2023/04/17 02:35:03;;;;;;;2.20;1.20;;;7.60;99.90;;;;;;4977231;28;20320;-89
2023/04/17 02:37:35;;;;;;;2.43;1.03;;;7.60;99.90;;;;;;4976288;28;20210;-88
2023/04/17 02:40:08;;;;;;;3.90;1.23;;;7.50;99.90;;;;;;4980101;28;20217;-89
2023/04/17 02:42:42;;;;;;;5.10;1.67;;;7.40;99.90;;;;;;4987023;28;20279;-89
2023/04/17 02:45:14;;;;;;;3.63;1.13;;;7.30;99.90;;;;;;4995920;28;20229;-89
2023/04/17 02:47:46;;;;;;;4.10;1.67;;;7.30;99.90;;;;;;4995923;28;20225;-89
2023/04/17 02:50:17;;;;;;;3.47;1.20;;;7.30;99.90;;;;;;4995719;28;20283;-89
2023/04/17 02:52:48;;;;;;;3.23;0.90;;;7.20;99.90;;;;;;4997829;28;20338;-88
2023/04/17 02:55:20;;;;;;;3.33;1.30;;;7.20;99.90;;;;;;5017350;28;20286;-88
2023/04/17 02:57:54;;;;;;;3.73;1.27;;;7.10;99.90;;;;;;5017360;28;20278;-90
2023/04/17 03:00:26;;;;;;;4.63;1.23;;;7.10;99.90;;;;;;5004718;28;20210;-90
2023/04/17 03:02:58;;;;;;;4.17;1.10;;;7.00;99.90;;;;;;4982052;28;20262;-90
2023/04/17 03:05:31;;;;;;;4.43;1.20;;;6.90;99.90;;;;;;4977347;28;20237;-88
2023/04/17 03:08:02;;;;;;;5.00;1.37;;;6.90;99.90;;;;;;4987933;28;20237;-90
2023/04/17 03:10:34;;;;;;;2.63;0.90;;;6.90;99.90;;;;;;4998299;28;20214;-88
2023/04/17 03:13:08;;;;;;;4.10;1.23;;;6.80;99.90;;;;;;4995781;28;20218;-90
2023/04/17 03:15:40;;;;;;;4.07;1.40;;;6.80;99.90;;;;;;4995989;28;20612;-88
2023/04/17 03:18:12;;;;;;;5.43;1.20;;;6.70;99.90;;;;;;5003851;28;20222;-88
2023/04/17 03:20:44;;;;;;;1.87;0.97;;;6.70;99.90;;;;;;4995244;28;20206;-88
2023/04/17 03:23:16;;;;;;;3.70;1.23;;;6.70;99.90;;;;;;4995788;28;20230;-89
2023/04/17 03:25:47;;;;;;;3.30;1.17;;;6.70;99.90;;;;;;4985499;28;20270;-90
2023/04/17 03:28:22;;;;;;;5.63;1.10;;;6.70;99.90;;;;;;4974305;28;20207;-90
2023/04/17 03:30:54;;;;;;;7.97;1.40;;;6.70;99.90;;;;;;4990704;28;20236;-89
2023/04/17 03:33:26;;;;;;;3.70;1.03;;;6.60;99.90;;;;;;4978268;28;20268;-88
2023/04/17 03:35:57;;;;;;;7.57;1.33;;;6.60;99.90;;;;;;5002515;28;20320;-90
2023/04/17 03:38:28;;;;;;;6.10;1.50;;;6.60;99.90;;;;;;5006810;28;20275;-90
2023/04/17 03:41:00;;;;;;;4.53;1.10;;;6.50;99.90;;;;;;4994457;28;20232;-89
2023/04/17 03:43:34;;;;;;;9.40;1.43;;;6.50;99.90;;;;;;4983278;28;20215;-89
2023/04/17 03:46:05;;;;;;;4.57;1.40;;;6.50;99.90;;;;;;4987833;28;20214;-90
2023/04/17 03:48:36;;;;;;;7.63;1.20;;;6.60;99.90;;;;;;4983329;28;20194;-90
2023/04/17 03:51:08;;;;;;;6.93;1.60;;;6.50;99.90;;;;;;4994057;28;20226;-90
2023/04/17 03:53:43;;;;;;;7.03;1.63;;;6.40;99.90;;;;;;4996230;28;20206;-94
2023/04/17 03:56:20;;;;;;;7.13;1.90;;;6.40;99.90;;;;;;4989980;28;20228;-89
2023/04/17 03:58:54;;;;;;;4.33;1.43;;;6.30;99.90;;;;;;4989566;28;20198;-89
2023/04/17 04:01:27;;;;;;;11.00;1.63;;;6.30;99.90;;;;;;5000607;28;20221;-90
2023/04/17 04:04:02;;;;;;;4.50;1.47;;;6.30;99.90;;;;;;5003205;28;20576;-89
2023/04/17 04:06:36;;;;;;;5.80;1.40;;;6.30;99.90;;;;;;5000564;28;20236;-87
2023/04/17 04:09:11;;;;;;;6.67;1.93;;;6.20;99.90;;;;;;5000313;28;20225;-88
2023/04/17 04:11:44;;;;;;;7.93;2.00;;;6.20;99.90;;;;;;4999959;28;20640;-88
2023/04/17 04:14:19;;;;;;;6.80;1.60;;;6.20;99.90;;;;;;4997033;28;20210;-88
2023/04/17 04:16:52;;;;;;;5.33;1.73;;;6.20;99.90;;;;;;5000601;28;20209;-90
2023/04/17 04:19:28;;;;;;;6.33;1.77;;;6.30;99.90;;;;;;5004177;28;20221;-91
2023/04/17 04:22:08;;;;;;;5.13;1.33;;;6.20;99.90;;;;;;5009388;28;20218;-90
2023/04/17 04:24:41;;;;;;;6.80;1.67;;;6.20;99.90;;;;;;5001599;28;20214;-89
2023/04/17 04:27:16;;;;;;;7.67;1.53;;;6.20;99.90;;;;;;4999837;28;20257;-91
2023/04/17 04:29:51;;;;;;;12.43;1.70;;;6.20;99.90;;;;;;4999486;28;20248;-90
2023/04/17 04:32:24;;;;;;;5.23;1.23;;;6.10;99.90;;;;;;5007033;28;20237;-89
2023/04/17 04:35:00;;;;;;;5.87;1.40;;;6.10;99.90;;;;;;5001238;28;20222;-89
2023/04/17 04:37:36;;;;;;;7.37;1.60;;;6.00;99.90;;;;;;4987436;28;20289;-87
2023/04/17 04:40:11;;;;;;;6.40;1.53;;;6.00;99.90;;;;;;5001286;28;20210;-88
2023/04/17 04:42:50;;;;;;;7.60;1.63;;;6.00;99.90;;;;;;4999821;28;20221;-90
2023/04/17 04:45:24;;;;;;;8.57;1.60;;;6.10;99.90;;;;;;4999804;28;20217;-88
2023/04/17 04:47:59;;;;;;;2.97;1.10;;;6.00;99.90;;;;;;4989324;28;20205;-90
2023/04/17 04:50:33;;;;;;;4.83;0.93;;;6.10;99.90;;;;;;4994971;28;20209;-87
2023/04/17 04:53:05;;;;;;;2.73;1.17;;;6.10;99.90;;;;;;4999752;28;20198;-89
2023/04/17 04:55:36;;;;;;;4.37;1.73;;;6.10;99.90;;;;;;5000825;28;20230;-89
2023/04/17 04:58:12;;;;;;;6.60;1.10;;;6.00;99.90;;;;;;5001273;28;20207;-89
2023/04/17 05:00:47;;;;;;;4.60;1.57;;;6.00;99.90;;;;;;5001356;28;20253;-90
2023/04/17 05:03:22;;;;;;;6.83;1.40;;;5.90;99.90;;;;;;5027269;28;20205;-89
2023/04/17 05:05:55;;;;;;;3.27;1.30;;;5.90;99.90;;;;;;5006099;28;20347;-89
2023/04/17 05:08:34;;;;;;;6.33;1.30;;;5.80;99.90;;;;;;5007203;28;20206;-91
2023/04/17 05:11:10;;;;;;;5.80;1.27;;;5.70;99.90;;;;;;5005512;28;20218;-92
2023/04/17 05:13:46;;;;;;;3.23;1.10;;;5.60;99.90;;;;;;5004872;28;20257;-88
2023/04/17 05:16:28;;;;;;;5.47;1.30;;;5.60;99.90;;;;;;5000381;28;20329;-91
2023/04/17 05:19:01;;;;;;;5.67;1.17;;;5.60;99.90;;;;;;4992841;28;20711;-90
2023/04/17 05:21:35;;;;;;;5.47;1.40;;;5.60;99.90;;;;;;5005844;28;20213;-90
2023/04/17 05:24:12;;;;;;;3.57;1.17;;;5.60;99.90;;;;;;5002677;28;20372;-91
2023/04/17 05:26:45;;;;;;;5.43;1.00;;;5.60;99.90;;;;;;5000256;28;20201;-91
2023/04/17 05:29:18;;;;;;;5.97;1.30;;;5.70;99.90;;;;;;4997570;28;20214;-89
2023/04/17 05:31:56;;;;;;;3.47;1.00;;;5.70;99.90;;;;;;5002985;28;20309;-89
2023/04/17 05:34:39;;;;;;;3.70;1.03;;;5.70;99.90;;;;;;5009002;28;20220;-89
2023/04/17 05:37:11;;;;;;;4.83;0.83;;;5.70;99.90;;;;;;5007376;28;20202;-89
2023/04/17 05:39:44;;;;;;;5.13;1.40;;;5.60;99.90;;;;;;5001933;28;20205;-90
2023/04/17 05:42:18;;;;;;;4.47;0.90;;;5.60;99.90;;;;;;5013361;28;20210;-90
2023/04/17 05:44:52;;;;;;;3.57;1.27;;;5.50;99.90;;;;;;5014154;28;20202;-88
2023/04/17 05:47:31;;;;;;;5.27;1.30;;;5.50;99.90;;;;;;5009824;28;20210;-87
2023/04/17 05:50:08;;;;;;;5.13;0.90;;;5.50;99.90;;;;;;5004032;28;20233;-87
2023/04/17 05:52:40;;;;;;;2.63;1.07;;;5.50;99.90;;;;;;4987406;28;20297;-88
2023/04/17 05:55:18;;;;;;;4.10;1.00;;;5.40;99.90;;;;;;4992338;28;20228;-87
2023/04/17 05:57:53;;;;;;;2.37;1.10;;;5.40;99.90;;;;;;5005057;28;20225;-88
2023/04/17 06:00:28;;;;;;;2.60;0.93;;;5.30;99.90;;;;;;4997468;28;20292;-90
2023/04/17 06:03:02;;;;;;;3.60;1.50;;;5.30;99.90;;;;;;4996329;28;20206;-89
2023/04/17 06:05:33;;;;;;;3.13;1.20;;;5.20;99.90;;;;;;4995027;28;20253;-89
2023/04/17 06:08:05;;;;;;;4.87;1.57;;;5.20;99.90;;;;;;4994943;28;21121;-89
2023/04/17 06:10:37;;;;;;;5.50;1.23;;;5.20;99.90;;;;;;5005886;28;20252;-89
2023/04/17 06:13:09;;;;;;;3.33;1.40;;;5.10;99.90;;;;;;5001585;28;20213;-89
2023/04/17 06:15:41;;;;;;;2.23;1.07;;;5.10;99.90;;;;;;5011226;28;20226;-90
2023/04/17 06:18:16;;;;;;;3.10;1.00;;;5.10;99.90;;;;;;4991235;28;20218;-91
2023/04/17 06:20:48;;;;;;;6.20;1.10;;;5.00;99.90;;;;;;4996165;28;20668;-92
2023/04/17 06:23:20;;;;;;;3.30;1.13;;;5.00;99.90;;;;;;4995683;28;20225;-90
2023/04/17 06:25:55;;;;;;;4.13;1.13;;;5.00;99.90;;;;;;4996782;28;20617;-94
2023/04/17 06:28:27;;;;;;;4.33;1.00;;;4.90;99.90;;;;;;4994687;28;20210;-90
2023/04/17 06:31:02;;;;;;;4.57;1.20;;;4.80;99.90;;;;;;4990407;28;20288;-91
2023/04/17 06:33:35;;;;;;;5.47;1.20;;;4.70;99.90;;;;;;4984186;28;20265;-92
2023/04/17 06:36:08;;;;;;;3.33;1.83;;;4.50;99.90;;;;;;4996594;28;20934;-91
2023/04/17 06:38:40;;;;;;;2.10;1.00;;;4.40;99.90;;;;;;4994550;28;20977;-92
2023/04/17 06:41:11;;;;;;;4.07;1.17;;;4.40;99.90;;;;;;4980769;28;20671;-90
2023/04/17 06:43:42;;;;;;;4.37;1.10;;;4.30;99.90;;;;;;5000109;28;20210;-91
2023/04/17 06:46:14;;;;;;;11.33;3.63;;;4.20;99.90;;;;;;4995790;28;20260;-91
2023/04/17 06:48:50;;;;;;;2.87;1.30;;;4.10;99.90;;;;;;4994691;28;20230;-90
2023/04/17 06:51:24;;;;;;;3.77;1.20;;;4.20;99.90;;;;;;4996933;28;20706;-90
2023/04/17 06:53:55;;;;;;;5.13;0.90;;;4.10;99.90;;;;;;4996113;28;20210;-89
2023/04/17 06:56:26;;;;;;;4.33;1.10;;;4.00;99.90;;;;;;4995834;28;20242;-91
2023/04/17 06:58:58;;;;;;;3.33;1.47;;;4.00;99.90;;;;;;4995597;28;20206;-90
2023/04/17 07:01:36;;;;;;;4.30;1.30;;;4.00;99.90;;;;;;4996083;28;20209;-89
2023/04/17 07:04:10;;;;;;;4.17;1.13;;;3.90;99.90;;;;;;4982355;28;20297;-89
2023/04/17 07:06:43;;;;;;;6.30;1.43;;;3.90;99.90;;;;;;4986164;28;20202;-90
2023/04/17 07:09:15;;;;;;;3.27;1.60;;;3.80;99.90;;;;;;4996033;28;20334;-90
2023/04/17 07:11:47;;;;;;;3.60;1.13;;;3.80;99.90;;;;;;4995418;28;20230;-88
2023/04/17 07:14:20;;;;;;;7.10;1.50;;;3.80;99.90;;;;;;4997058;28;20273;-89
2023/04/17 07:16:51;;;;;;;6.00;1.37;;;3.70;99.90;;;;;;5000960;28;20234;-92
2023/04/17 07:19:25;;;;;;;4.73;1.73;;;3.70;99.90;;;;;;5004049;28;20214;-89
2023/04/17 07:21:58;;;;;;;2.43;1.20;;;3.70;99.90;;;;;;4976679;28;20207;-90
2023/04/17 07:24:33;;;;;;;5.07;1.60;;;3.70;99.90;;;;;;4992802;28;20206;-91
2023/04/17 07:27:05;;;;;;;3.10;1.13;;;3.70;99.90;;;;;;4995454;28;20218;-92
2023/04/17 07:29:36;;;;;;;2.97;1.47;;;3.70;99.90;;;;;;4994032;28;20206;-90
2023/04/17 07:32:09;;;;;;;2.73;1.57;;;3.70;99.90;;;;;;4993487;28;20214;-90
2023/04/17 07:34:43;;;;;;;3.87;1.30;;;3.70;99.90;;;;;;4981345;28;20283;-90
2023/04/17 07:37:15;;;;;;;13.17;1.70;;;3.70;99.90;;;;;;4990040;28;20249;-89
2023/04/17 07:39:52;;;;;;;3.43;1.30;;;3.70;99.90;;;;;;4975036;28;20656;-90
2023/04/17 07:42:23;;;;;;;4.80;1.37;;;3.70;99.90;;;;;;4995770;28;20205;-89
2023/04/17 07:44:57;;;;;;;5.57;1.50;;;3.60;99.90;;;;;;4995360;28;20198;-90
2023/04/17 07:47:29;;;;;;;2.53;1.07;;;3.60;99.90;;;;;;4994403;28;20242;-92
2023/04/17 07:50:03;;;;;;;3.17;1.03;;;3.60;99.90;;;;;;4995331;28;20210;-90
2023/04/17 07:52:35;;;;;;;5.27;1.47;;;3.50;99.90;;;;;;4995129;28;20206;-90
2023/04/17 07:55:07;;;;;;;5.30;1.20;;;3.50;99.90;;;;;;4994725;28;20222;-88
2023/04/17 07:57:41;;;;;;;5.33;1.60;;;3.50;99.90;;;;;;4993265;28;20230;-90
2023/04/17 08:00:14;;;;;;;8.97;1.33;;;3.50;99.90;;;;;;4998792;28;20202;-91
2023/04/17 08:02:46;;;;;;;3.07;0.97;;;3.50;99.90;;;;;;4993376;28;20203;-91
2023/04/17 08:05:20;;;;;;;8.87;1.53;;;3.50;99.90;;;;;;4994588;28;20214;-90
2023/04/17 08:07:53;;;;;;;3.83;1.20;;;3.40;99.90;;;;;;4977826;28;20234;-90
2023/04/17 08:10:24;;;;;;;4.27;1.30;;;3.50;99.90;;;;;;4975547;28;20265;-89
2023/04/17 08:12:55;;;;;;;4.43;1.10;;;3.40;99.90;;;;;;4975363;28;20207;-92
2023/04/17 08:15:28;;;;;;;2.63;1.10;;;3.50;99.90;;;;;;4986129;28;20210;-90
2023/04/17 08:17:59;;;;;;;3.53;1.17;;;3.40;99.90;;;;;;4981224;28;20301;-91
2023/04/17 08:20:32;;;;;;;3.77;1.53;;;3.40;99.90;;;;;;4975134;28;20221;-91
2023/04/17 08:23:04;;;;;;;6.87;1.50;;;3.40;99.90;;;;;;4991872;28;20234;-91
2023/04/17 08:25:37;;;;;;;3.50;0.90;;;3.40;99.90;;;;;;4997394;28;20944;-92
2023/04/17 08:28:09;;;;;;;3.73;1.00;;;3.40;99.90;;;;;;5014004;28;20478;-91
2023/04/17 08:30:42;;;;;;;5.90;1.23;;;3.30;99.90;;;;;;4984011;28;20218;-91
2023/04/17 08:33:15;;;;;;;2.50;0.83;;;3.30;99.90;;;;;;5005850;28;20208;-92
2023/04/17 08:35:50;;;;;;;3.87;0.80;;;3.30;99.90;;;;;;4993802;28;20276;-91
2023/04/17 08:38:21;;;;;;;1.87;1.10;;;3.30;99.90;;;;;;4993630;28;20234;-92
2023/04/17 08:40:55;;;;;;;4.43;1.10;;;3.30;99.90;;;;;;4989011;28;20217;-91
2023/04/17 08:43:29;;;;;;;2.47;1.07;;;3.30;99.90;;;;;;4980512;28;20251;-92
2023/04/17 08:46:02;;;;;;;1.90;0.77;;;3.30;99.90;;;;;;4995778;28;20870;-93
2023/04/17 08:48:34;;;;;;;3.03;0.90;;;3.30;99.90;;;;;;4993861;28;20206;-90
2023/04/17 08:51:09;;;;;;;2.60;0.93;;;3.30;99.90;;;;;;4991408;28;20214;-91
2023/04/17 08:53:41;;;;;;;5.57;1.07;;;3.30;99.90;;;;;;4993540;28;20212;-92
2023/04/17 08:56:12;;;;;;;4.07;0.87;;;3.30;99.90;;;;;;4994866;28;20677;-91
2023/04/17 08:58:46;;;;;;;6.97;1.23;;;3.40;99.90;;;;;;4992528;28;20261;-86
2023/04/17 09:01:19;;;;;;;2.67;1.03;;;3.40;99.90;;;;;;4991328;28;20210;-90
2023/04/17 09:03:52;;;;;;;2.43;0.70;;;3.40;99.90;;;;;;4974478;28;20213;-90
2023/04/17 09:06:28;;;;;;;3.00;1.57;;;3.40;99.90;;;;;;4972573;28;20210;-90
2023/04/17 09:09:03;;;;;;;2.70;0.90;;;3.40;99.90;;;;;;4973136;28;20210;-91
2023/04/17 09:11:35;;;;;;;2.93;0.87;;;3.40;99.90;;;;;;4989817;28;20210;-89
2023/04/17 09:14:07;;;;;;;3.87;0.83;;;3.50;99.90;;;;;;4993920;28;20592;-90
2023/04/17 09:16:55;;;;;;;3.10;1.10;;;3.50;99.90;;;;;;4994312;28;20210;-91
2023/04/17 09:19:27;;;;;;;4.47;0.80;;;3.40;99.90;;;;;;5002510;28;20210;-90
2023/04/17 09:22:19;;;;;;;2.47;0.60;;;3.40;99.90;;;;;;5002938;28;20261;-91
2023/04/17 09:24:51;;;;;;;2.60;0.80;;;3.40;99.90;;;;;;5015310;28;20570;-90
2023/04/17 09:27:25;;;;;;;4.47;0.80;;;3.40;99.90;;;;;;4998384;28;20674;-94
2023/04/17 09:29:58;;;;;;;1.27;0.63;;;3.40;99.90;;;;;;5000413;28;20641;-92
2023/04/17 09:32:31;;;;;;;2.40;0.90;;;3.30;99.90;;;;;;5007851;28;20202;-90
2023/04/17 09:35:04;;;;;;;5.70;0.90;;;3.30;99.90;;;;;;4998118;28;20226;-91
2023/04/17 09:37:53;;;;;;;2.47;0.93;;;3.30;99.90;;;;;;4995451;28;20242;-93
2023/04/17 09:40:26;;;;;;;2.60;1.00;;;3.30;99.90;;;;;;4997393;28;20217;-89
2023/04/17 09:43:00;;;;;;;5.57;1.73;;;3.30;99.90;;;;;;4997495;28;20237;-89
2023/04/17 09:45:35;;;;;;;2.93;1.10;;;3.30;99.90;;;;;;4995557;28;20334;-90
2023/04/17 09:48:09;;;;;;;4.70;0.80;;;3.20;99.90;;;;;;4996540;28;20220;-90
2023/04/17 09:50:41;;;;;;;3.33;0.80;;;3.20;99.90;;;;;;4996530;28;20204;-89
2023/04/17 09:53:16;;;;;;;2.13;0.83;;;3.20;99.90;;;;;;4995337;28;20303;-89
2023/04/17 09:55:48;;;;;;;1.97;0.93;;;3.20;99.90;;;;;;4996739;28;20198;-89
2023/04/17 09:58:20;;;;;;;3.43;0.87;;;3.20;99.90;;;;;;4991329;28;20235;-89
2023/04/17 10:00:53;;;;;;;4.60;0.90;;;3.10;99.90;;;;;;4985368;28;20202;-89
2023/04/17 10:03:25;;;;;;;6.00;0.87;;;3.10;99.90;;;;;;4996961;28;20253;-88
2023/04/17 10:05:57;;;;;;;4.00;0.80;;;3.10;99.90;;;;;;4996185;28;20203;-87
2023/04/17 10:08:31;;;;;;;4.47;1.10;;;3.00;99.90;;;;;;4995523;28;20237;-88
2023/04/17 10:11:07;;;;;;;2.17;0.90;;;2.90;99.90;;;;;;4996597;28;20217;-88
2023/04/17 10:13:41;;;;;;;2.30;0.80;;;2.90;99.90;;;;;;5013531;28;20227;-89
2023/04/17 10:16:13;;;;;;;3.07;0.80;;;2.80;99.90;;;;;;5010995;28;20655;-88
2023/04/17 10:18:47;;;;;;;4.73;1.07;;;2.80;99.90;;;;;;4994167;28;20724;-89
2023/04/17 10:21:24;;;;;;;2.97;1.10;;;2.70;99.90;;;;;;4994765;28;20245;-86
2023/04/17 10:23:58;;;;;;;2.43;0.83;;;2.70;99.90;;;;;;4996574;28;20733;-87
2023/04/17 10:26:38;;;;;;;2.53;0.93;;;2.70;99.90;;;;;;4996228;28;20688;-88
2023/04/17 10:29:11;;;;;;;2.10;0.70;;;2.70;99.90;;;;;;4987695;28;20662;-88
2023/04/17 10:32:17;;;;;;;3.40;0.70;;;2.70;99.90;;;;;;4976598;28;20784;-85
2023/04/17 10:34:49;;;;;;;3.20;0.90;;;2.60;99.90;;;;;;4976642;28;20199;-89
2023/04/17 10:37:22;;;;;;;2.60;0.80;;;2.50;99.90;;;;;;4976037;28;20242;-88
2023/04/17 10:40:04;;;;;;;2.97;0.87;;;2.50;99.90;;;;;;5005535;28;20216;-89
2023/04/17 10:42:36;;;;;;;1.37;0.90;;;2.50;99.90;;;;;;5001716;28;20805;-88
2023/04/17 10:45:20;;;;;;;2.30;0.70;;;2.40;99.90;;;;;;4995628;28;20289;-89
2023/04/17 10:48:02;;;;;;;3.83;1.00;;;2.40;99.90;;;;;;4995145;28;20214;-89
2023/04/17 10:50:33;;;;;;;2.37;1.17;;;2.40;99.90;;;;;;4996032;28;20264;-88
2023/04/17 10:53:06;;;;;;;4.77;1.13;;;2.40;99.90;;;;;;4994775;28;20261;-88
2023/04/17 10:55:50;;;;;;;1.97;1.33;;;2.40;99.90;;;;;;4996097;28;20218;-89
2023/04/17 10:58:24;;;;;;;2.10;1.07;;;2.30;99.90;;;;;;4994963;28;20607;-89
2023/04/17 11:01:09;;;;;;;5.10;1.10;;;2.40;99.90;;;;;;4995641;28;20611;-90
2023/04/17 11:03:42;;;;;;;4.23;1.33;;;2.40;99.90;;;;;;5003221;28;20209;-88
2023/04/17 11:06:15;;;;;;;3.30;1.03;;;2.30;99.90;;;;;;4996698;28;20242;-90
2023/04/17 11:08:46;;;;;;;2.50;0.90;;;2.30;99.90;;;;;;4995002;28;20202;-88
2023/04/17 11:11:19;;;;;;;3.07;1.17;;;2.30;99.90;;;;;;4996256;28;20210;-88
2023/04/17 11:14:14;;;;;;;4.03;1.00;;;2.40;99.90;;;;;;4995309;28;20214;-88
2023/04/17 11:16:46;;;;;;;6.20;1.27;;;2.50;99.90;;;;;;4996415;28;20279;-88
2023/04/17 11:19:20;;;;;;;2.33;1.20;;;2.50;99.90;;;;;;5001765;28;20260;-88
2023/04/17 11:21:53;;;;;;;6.73;1.10;;;2.50;99.90;;;;;;5003544;28;20269;-88
2023/04/17 11:24:25;;;;;;;3.13;1.00;;;2.50;99.90;;;;;;5007408;28;20602;-88
2023/04/17 11:27:02;;;;;;;6.20;1.33;;;2.50;99.90;;;;;;4995556;28;20236;-88
2023/04/17 11:29:33;;;;;;;1.93;0.70;;;2.60;99.90;;;;;;4993851;28;20210;-88
2023/04/17 11:32:05;;;;;;;2.10;1.00;;;2.50;99.90;;;;;;4995171;28;20869;-88
2023/04/17 11:34:37;;;;;;;2.27;1.00;;;2.50;99.90;;;;;;4994164;28;20210;-87
2023/04/17 11:37:09;;;;;;;3.33;1.13;;;2.50;99.90;;;;;;4995218;28;20217;-87
2023/04/17 11:39:44;;;;;;;2.00;0.93;;;2.60;99.90;;;;;;4994930;28;20268;-88
2023/04/17 11:42:27;;;;;;;2.07;0.90;;;2.60;99.90;;;;;;4996157;28;20206;-88
2023/04/17 11:45:06;;;;;;;4.57;1.10;;;2.60;99.90;;;;;;4996866;28;20297;-89
2023/04/17 11:47:38;;;;;;;4.13;1.37;;;2.70;99.90;;;;;;5012446;28;20190;-90
2023/04/17 11:50:10;;;;;;;2.17;0.97;;;2.70;99.90;;;;;;5003870;28;20210;-89
2023/04/17 11:52:42;;;;;;;3.43;1.10;;;2.80;99.90;;;;;;5015955;28;20194;-89
2023/04/17 11:55:17;;;;;;;1.83;1.07;;;2.80;99.90;;;;;;5033888;28;20858;-88
2023/04/17 11:57:53;;;;;;;1.30;0.93;;;2.70;99.90;;;;;;5018705;28;20205;-88
2023/04/17 12:00:28;;;;;;;4.40;0.87;;;2.60;99.90;;;;;;4998195;28;20237;-89
2023/04/17 12:03:01;;;;;;;3.70;1.20;;;2.60;99.90;;;;;;4997252;28;20214;-88
2023/04/17 12:05:32;;;;;;;4.70;1.07;;;2.50;99.90;;;;;;4997048;28;20210;-89
2023/04/17 12:08:06;;;;;;;2.53;1.10;;;2.50;99.90;;;;;;4994193;28;20273;-89
2023/04/17 12:10:41;;;;;;;2.87;1.00;;;2.40;99.90;;;;;;4995851;28;20211;-88
2023/04/17 12:13:15;;;;;;;3.30;1.10;;;2.40;99.90;;;;;;4986641;28;20211;-88
2023/04/17 12:15:47;;;;;;;1.47;0.97;;;2.30;99.90;;;;;;4980605;28;20209;-87
2023/04/17 12:18:19;;;;;;;2.80;1.03;;;2.30;99.90;;;;;;5013193;28;20696;-88
2023/04/17 12:20:51;;;;;;;3.43;1.20;;;2.30;99.90;;;;;;5013646;28;20268;-89
2023/04/17 12:23:23;;;;;;;3.77;1.00;;;2.30;99.90;;;;;;5008495;28;20635;-88
2023/04/17 12:25:55;;;;;;;4.97;1.40;;;2.20;99.90;;;;;;4988236;28;20230;-87
2023/04/17 12:28:29;;;;;;;4.83;1.07;;;2.20;99.90;;;;;;4958022;28;20246;-87
2023/04/17 12:31:01;;;;;;;4.40;1.43;;;2.20;99.90;;;;;;4974824;28;20345;-88
2023/04/17 12:33:32;;;;;;;2.60;1.00;;;2.10;99.90;;;;;;4977560;28;20680;-87
2023/04/17 12:36:05;;;;;;;3.57;1.13;;;2.10;99.90;;;;;;4975300;28;20251;-87
2023/04/17 12:38:36;;;;;;;3.37;1.10;;;2.10;99.90;;;;;;4989901;28;20211;-87
2023/04/17 12:41:08;;;;;;;3.40;1.10;;;2.20;99.90;;;;;;4993621;28;20209;-87
2023/04/17 12:43:41;;;;;;;3.73;0.83;;;2.20;99.90;;;;;;4987335;28;20682;-87
2023/04/17 12:46:12;;;;;;;3.57;1.10;;;2.30;99.90;;;;;;4990936;28;20206;-88
2023/04/17 12:48:43;;;;;;;1.20;0.63;;;2.40;99.90;;;;;;4992661;28;20755;-88
2023/04/17 12:51:15;;;;;;;2.70;0.70;;;2.50;99.90;;;;;;4996362;28;20300;-88
2023/04/17 12:53:46;;;;;;;1.87;0.83;;;2.60;99.90;;;;;;4978556;28;20230;-89
2023/04/17 12:56:18;;;;;;;2.20;0.60;;;2.60;99.90;;;;;;4974415;28;20238;-87
2023/04/17 12:58:51;;;;;;;2.30;0.90;;;2.70;99.90;;;;;;4982723;28;20285;-87
2023/04/17 13:01:24;;;;;;;3.47;0.90;;;2.80;99.90;;;;;;4993227;28;20214;-88
2023/04/17 13:03:55;;;;;;;3.33;0.80;;;2.80;99.90;;;;;;5002548;28;20245;-88
2023/04/17 13:06:31;;;;;;;1.87;0.70;;;2.90;99.90;;;;;;4993428;28;20197;-87
2023/04/17 13:09:03;;;;;;;2.20;0.70;;;3.00;99.90;;;;;;4992550;28;20214;-90
2023/04/17 13:11:34;;;;;;;5.10;0.90;;;3.00;99.90;;;;;;4993763;28;20237;-88
2023/04/17 13:14:09;;;;;;;2.97;0.90;;;3.10;99.90;;;;;;4993942;28;20257;-87
2023/04/17 13:16:41;;;;;;;2.03;0.80;;;3.10;99.90;;;;;;4991742;28;20663;-87
2023/04/17 13:19:12;;;;;;;4.23;1.00;;;3.10;99.90;;;;;;4987121;28;20357;-87
2023/04/17 13:21:44;;;;;;;5.77;1.07;;;3.20;99.90;;;;;;4993231;28;20224;-87
2023/04/17 13:24:16;;;;;;;3.50;0.80;;;3.20;99.90;;;;;;4994333;28;20214;-87
2023/04/17 13:26:47;;;;;;;3.47;1.20;;;3.20;99.90;;;;;;4993389;28;20211;-86
2023/04/17 13:29:21;;;;;;;2.13;1.47;;;3.20;99.90;;;;;;5006847;28;20229;-88
2023/04/17 13:31:53;;;;;;;2.50;1.87;;;3.30;99.90;;;;;;5016299;28;20214;-86